General Aviation Weather

Text Reports

Enter one or more of the following location identifiers separated by a space:

Zip Code, Four-Character ICAO or Three-Character IATA airport codes.

METAR - Aviation Routine Weather Report
KUAO - Aurora, Oregon
Updated at 12:53 PM GMT on December 27, 2014 (4:53 AM PST):
METAR KUAO 271253Z AUTO 24003KT 10SM FEW031 BKN044 OVC075 05/04 A3031 RMK AO2 SLP266 T00500039
TAF - Terminal Area Forecast
KUAO - Aurora, Oregon
Updated at 12:53 PM GMT on December 27, 2014 (4:53 AM PST):
No TAF is currently available for this location.
Decoded:
No decoded TAF is available.
PIREP - Pilot Weather Report
KUAO - Aurora, Oregon
Updated at 12:53 PM GMT on December 27, 2014 (4:53 AM PST):
No PIREP is currently available for this location.
AIRMET - Airmens Meteorological Information
KUAO - Aurora, Oregon
Updated at 12:53 PM GMT on December 27, 2014 (4:53 AM PST):
No AIRMET is currently available for this location.
SIGMET - Significant Meteorological Information
KUAO - Aurora, Oregon
Updated at 12:53 PM GMT on December 27, 2014 (4:53 AM PST):
No SIGMET is currently available for this location.
NOTAM - Notice to Airmen
KUAO - Aurora, Oregon
Updated at 12:53 PM GMT on December 27, 2014 (4:53 AM PST):
No NOTAM is currently available for this location.
Forecast Area
KUAO - Aurora, Oregon
Updated at 12:53 PM GMT on December 27, 2014 (4:53 AM PST):
No NOTAM is currently available for this location.
Aviation Weather Maps